Time;durP1;ratioP1;P1;durP2;ratioP2;P2;SDS_P1;SDS_P2;PMS_P1;PMS_P2;Temp;Humidity;BMP_temperature;BMP_pressure;BME280_temperature;BME280_humidity;BME280_pressure;Samples;Min_cycle;Max_cycle;Signal;HPM_P1;HPM_P2
2023/07/10 00:00:20;;;;;;;7.72;5.70;;;;;;;19.26;nan;100884.28;4980042;28;20636;-74
2023/07/10 00:02:46;;;;;;;10.57;5.75;;;;;;;19.21;nan;100883.50;4956782;28;20035;-74
2023/07/10 00:05:13;;;;;;;9.52;6.10;;;;;;;19.22;nan;100885.06;4959935;28;20358;-75
2023/07/10 00:07:39;;;;;;;11.27;5.97;;;;;;;19.19;nan;100881.09;4968966;28;20031;-73
2023/07/10 00:10:04;;;;;;;8.73;5.72;;;;;;;19.13;nan;100879.50;4974676;28;20061;-73
2023/07/10 00:12:30;;;;;;;12.27;6.82;;;;;;;19.16;nan;100883.50;4988297;28;20027;-74
2023/07/10 00:14:55;;;;;;;9.40;6.03;;;;;;;19.12;nan;100880.56;4974724;28;20051;-72
2023/07/10 00:17:21;;;;;;;13.30;6.70;;;;;;;19.18;nan;100886.69;4975443;28;20027;-73
2023/07/10 00:19:46;;;;;;;9.32;6.60;;;;;;;19.13;nan;100879.50;4973382;28;20042;-74
2023/07/10 00:22:11;;;;;;;17.23;7.60;;;;;;;19.08;nan;100879.50;4957111;28;20030;-74
2023/07/10 00:24:37;;;;;;;16.73;8.45;;;;;;;19.06;nan;100876.31;4968164;28;20039;-72
2023/07/10 00:27:09;;;;;;;16.50;8.18;;;;;;;19.00;nan;100872.84;4970247;28;20022;-74
2023/07/10 00:29:34;;;;;;;12.35;7.45;;;;;;;18.92;nan;100866.19;4970287;28;20041;-74
2023/07/10 00:32:10;;;;;;;12.88;7.20;;;;;;;18.98;nan;100888.31;4971556;28;20027;-73
2023/07/10 00:34:36;;;;;;;11.75;7.00;;;;;;;18.96;nan;100901.13;4970528;28;20058;-74
2023/07/10 00:37:01;;;;;;;14.98;7.15;;;;;;;18.79;nan;100896.06;4973343;28;20073;-73
2023/07/10 00:39:29;;;;;;;9.85;6.75;;;;;;;18.71;nan;100905.38;4968341;28;20407;-74
2023/07/10 00:41:59;;;;;;;12.00;6.40;;;;;;;18.63;nan;100913.13;4972481;28;20030;-73
2023/07/10 00:44:31;;;;;;;8.43;6.40;;;;;;;18.43;nan;100920.03;4974130;28;20033;-74
2023/07/10 00:47:05;;;;;;;15.50;7.00;;;;;;;18.32;nan;100914.97;4966576;28;20050;-74
2023/07/10 00:49:49;;;;;;;13.48;6.47;;;;;;;18.26;nan;100912.25;4968640;28;20481;-75
2023/07/10 00:52:24;;;;;;;12.38;6.93;;;;;;;18.04;nan;100890.34;4968609;28;20037;-75
2023/07/10 00:54:52;;;;;;;16.88;6.32;;;;;;;18.01;nan;100909.53;4968643;28;20035;-74
2023/07/10 00:57:37;;;;;;;8.67;6.47;;;;;;;17.90;nan;100910.56;4970136;28;20029;-74
2023/07/10 01:00:23;;;;;;;11.23;6.82;;;;;;;17.83;nan;100910.81;4972499;28;20588;-73
2023/07/10 01:02:49;;;;;;;9.00;5.95;;;;;;;17.75;nan;100905.94;4967223;28;20027;-73
2023/07/10 01:05:17;;;;;;;10.88;6.75;;;;;;;17.78;nan;100913.41;4970466;28;20030;-73
2023/07/10 01:07:53;;;;;;;10.20;6.27;;;;;;;17.65;nan;100901.38;4970531;28;20094;-74
2023/07/10 01:10:19;;;;;;;12.55;6.60;;;;;;;17.65;nan;100910.16;4975447;28;20073;-73
2023/07/10 01:12:46;;;;;;;10.38;6.45;;;;;;;17.64;nan;100910.41;4974993;28;20607;-73
2023/07/10 01:15:14;;;;;;;8.70;6.18;;;;;;;17.57;nan;100910.66;4952471;28;20043;-73
2023/07/10 01:17:39;;;;;;;10.02;6.43;;;;;;;17.56;nan;100909.06;4979413;28;20059;-74
2023/07/10 01:20:30;;;;;;;10.73;6.93;;;;;;;17.55;nan;100907.47;4970480;28;20484;-74
2023/07/10 01:22:56;;;;;;;10.20;6.80;;;;;;;17.52;nan;100909.81;4970679;28;20045;-73
2023/07/10 01:25:21;;;;;;;9.32;6.38;;;;;;;17.44;nan;100906.59;4971970;28;20038;-73
2023/07/10 01:27:47;;;;;;;12.07;6.40;;;;;;;17.40;nan;100908.16;4973149;28;20035;-74
2023/07/10 01:30:30;;;;;;;10.85;6.72;;;;;;;17.39;nan;100909.25;4970890;28;20103;-74
2023/07/10 01:32:56;;;;;;;10.00;6.93;;;;;;;17.43;nan;100922.84;4970822;28;20030;-73
2023/07/10 01:35:26;;;;;;;8.85;6.43;;;;;;;17.30;nan;100917.97;4971916;28;20073;-72
2023/07/10 01:37:51;;;;;;;10.35;6.60;;;;;;;17.30;nan;100912.63;4985813;28;20035;-73
2023/07/10 01:40:22;;;;;;;13.45;6.75;;;;;;;17.27;nan;100903.31;4970950;28;20034;-73
2023/07/10 01:42:47;;;;;;;12.98;7.22;;;;;;;17.31;nan;100919.56;4968938;28;20070;-74
2023/07/10 01:45:14;;;;;;;10.00;6.50;;;;;;;17.25;nan;100909.94;4954303;28;20489;-73
2023/07/10 01:47:40;;;;;;;11.05;6.70;;;;;;;17.23;nan;100920.84;4971403;28;20085;-73
2023/07/10 01:50:06;;;;;;;11.88;6.97;;;;;;;17.28;nan;100910.22;4960021;28;20034;-73
2023/07/10 01:52:32;;;;;;;11.02;7.05;;;;;;;17.26;nan;100911.53;4971891;28;20045;-74
2023/07/10 01:54:57;;;;;;;12.48;7.47;;;;;;;17.10;nan;100895.50;4964281;28;20031;-73
2023/07/10 01:57:24;;;;;;;16.17;6.95;;;;;;;17.09;nan;100901.84;4965484;28;20053;-74
2023/07/10 01:59:51;;;;;;;13.02;6.70;;;;;;;17.18;nan;100918.16;4967224;28;20134;-74
2023/07/10 02:02:16;;;;;;;10.27;6.53;;;;;;;17.11;nan;100897.06;4966188;28;20023;-73
2023/07/10 02:04:42;;;;;;;10.23;6.70;;;;;;;17.10;nan;100903.47;4968254;28;20027;-74
2023/07/10 02:07:07;;;;;;;7.35;5.82;;;;;;;17.19;nan;100911.75;4970707;28;20022;-73
2023/07/10 02:09:33;;;;;;;9.45;6.07;;;;;;;17.19;nan;100906.44;4965774;28;20058;-73
2023/07/10 02:11:59;;;;;;;9.50;6.60;;;;;;;17.16;nan;100918.41;4966684;28;20045;-75
2023/07/10 02:14:24;;;;;;;8.60;6.30;;;;;;;17.08;nan;100899.47;4950405;28;20054;-75
2023/07/10 02:16:50;;;;;;;10.38;6.53;;;;;;;17.07;nan;100911.16;4950074;28;20028;-73
2023/07/10 02:19:18;;;;;;;12.07;7.10;;;;;;;17.10;nan;100908.00;4950438;28;20030;-74
2023/07/10 02:21:43;;;;;;;8.52;6.10;;;;;;;17.10;nan;100910.66;4953908;28;20065;-73
2023/07/10 02:24:08;;;;;;;11.05;6.63;;;;;;;17.10;nan;100905.34;4946587;28;20726;-74
2023/07/10 02:26:34;;;;;;;7.72;6.28;;;;;;;17.07;nan;100901.31;4947909;28;20041;-73
2023/07/10 02:29:00;;;;;;;11.98;6.43;;;;;;;17.12;nan;100911.19;4938780;28;20062;-74
2023/07/10 02:31:26;;;;;;;7.90;6.13;;;;;;;17.09;nan;100917.03;4949692;28;20074;-74
2023/07/10 02:33:51;;;;;;;8.88;6.90;;;;;;;17.01;nan;100912.97;4947709;28;20118;-74
2023/07/10 02:36:17;;;;;;;8.30;6.47;;;;;;;16.99;nan;100912.44;4949407;28;20833;-74
2023/07/10 02:38:43;;;;;;;9.13;6.38;;;;;;;17.11;nan;100920.22;4951243;28;20035;-74
2023/07/10 02:41:08;;;;;;;10.15;6.07;;;;;;;17.10;nan;100923.97;4949328;28;20027;-74
2023/07/10 02:43:34;;;;;;;6.53;5.82;;;;;;;17.06;nan;100907.69;4951548;28;20066;-74
2023/07/10 02:45:59;;;;;;;9.25;6.10;;;;;;;17.16;nan;100921.06;4950536;28;20110;-74
2023/07/10 02:48:25;;;;;;;11.00;6.10;;;;;;;17.12;nan;100909.34;4951631;28;20035;-75
2023/07/10 02:50:50;;;;;;;7.63;6.00;;;;;;;17.24;nan;100930.44;4956561;28;20026;-76
2023/07/10 02:53:16;;;;;;;8.25;5.78;;;;;;;17.17;nan;100920.00;4953500;28;20041;-75
2023/07/10 02:55:42;;;;;;;7.93;5.93;;;;;;;17.22;nan;100936.03;4950545;28;20129;-73
2023/07/10 02:58:08;;;;;;;9.30;6.45;;;;;;;17.09;nan;100917.81;4949216;28;20055;-73
2023/07/10 03:00:33;;;;;;;10.32;6.07;;;;;;;17.14;nan;100925.84;4951164;28;20078;-75
2023/07/10 03:02:59;;;;;;;9.18;6.05;;;;;;;17.06;nan;100918.34;4947249;28;20047;-74
2023/07/10 03:05:25;;;;;;;7.82;6.72;;;;;;;17.08;nan;100928.72;4956574;28;20023;-75
2023/07/10 03:07:51;;;;;;;9.85;6.30;;;;;;;17.08;nan;100942.03;4942856;29;20031;-74
2023/07/10 03:10:17;;;;;;;11.73;6.30;;;;;;;17.04;nan;100944.38;4959080;28;20027;-74
2023/07/10 03:12:43;;;;;;;9.65;6.10;;;;;;;16.90;nan;100925.38;4953877;28;20055;-74
2023/07/10 03:15:09;;;;;;;11.38;6.60;;;;;;;16.93;nan;100932.09;4965331;28;20564;-74
2023/07/10 03:17:35;;;;;;;7.70;6.07;;;;;;;16.88;nan;100938.16;4972722;28;20051;-74
2023/07/10 03:20:00;;;;;;;7.97;6.03;;;;;;;16.85;nan;100930.66;4969200;28;20113;-73
2023/07/10 03:22:26;;;;;;;8.38;6.15;;;;;;;16.92;nan;100943.75;4971300;28;20034;-73
2023/07/10 03:24:52;;;;;;;10.95;7.97;;;;;;;16.98;nan;100943.56;4971045;28;20025;-73
2023/07/10 03:27:18;;;;;;;8.98;7.00;;;;;;;16.98;nan;100940.09;4959307;28;20497;-73
2023/07/10 03:29:43;;;;;;;10.25;5.78;;;;;;;16.89;nan;100933.63;4969037;28;20119;-73
2023/07/10 03:32:09;;;;;;;11.45;6.13;;;;;;;16.88;nan;100940.81;4962821;28;20050;-73
2023/07/10 03:34:34;;;;;;;13.05;6.78;;;;;;;16.84;nan;100933.59;4957853;28;20046;-73
2023/07/10 03:37:00;;;;;;;11.93;5.93;;;;;;;16.83;nan;100939.97;4971723;28;20026;-73
2023/07/10 03:39:25;;;;;;;9.00;6.78;;;;;;;16.60;nan;100904.63;4950466;28;20054;-73
2023/07/10 03:41:50;;;;;;;7.80;6.18;;;;;;;16.74;nan;100927.09;4967422;28;20022;-73
2023/07/10 03:44:16;;;;;;;11.35;6.40;;;;;;;16.88;nan;100947.97;4972066;28;20027;-73
2023/07/10 03:46:41;;;;;;;9.55;6.07;;;;;;;16.87;nan;100952.50;4970570;28;20030;-73
2023/07/10 03:49:07;;;;;;;9.63;6.22;;;;;;;16.89;nan;100957.56;4971337;28;20485;-73
2023/07/10 03:51:32;;;;;;;10.73;6.60;;;;;;;16.85;nan;100933.31;4972878;28;20126;-73
2023/07/10 03:53:58;;;;;;;7.57;5.95;;;;;;;16.91;nan;100944.84;4967156;28;20129;-73
2023/07/10 03:56:23;;;;;;;12.70;6.43;;;;;;;16.88;nan;100943.47;4966572;28;20645;-73
2023/07/10 03:58:49;;;;;;;11.70;6.18;;;;;;;16.91;nan;100947.50;4972063;28;20468;-74
2023/07/10 04:01:15;;;;;;;9.18;6.45;;;;;;;16.82;nan;100933.03;4951790;28;20038;-72
2023/07/10 04:03:41;;;;;;;12.35;6.82;;;;;;;16.93;nan;100951.50;4959458;28;20039;-73
2023/07/10 04:06:10;;;;;;;8.95;6.43;;;;;;;16.97;nan;100949.13;4971770;28;20023;-73
2023/07/10 04:08:38;;;;;;;9.35;6.50;;;;;;;16.77;nan;100915.94;4971776;28;20166;-73
2023/07/10 04:11:21;;;;;;;10.02;7.45;;;;;;;16.92;nan;100941.09;4970288;28;20557;-73
2023/07/10 04:13:49;;;;;;;12.82;6.65;;;;;;;16.90;nan;100937.88;4968373;28;20055;-73
2023/07/10 04:16:18;;;;;;;13.90;6.82;;;;;;;16.98;nan;100954.19;4970689;28;20524;-73
2023/07/10 04:18:46;;;;;;;13.25;6.80;;;;;;;16.99;nan;100961.13;4961594;28;20058;-73
2023/07/10 04:21:18;;;;;;;9.13;6.70;;;;;;;16.95;nan;100948.56;4974090;28;20030;-73
2023/07/10 04:23:45;;;;;;;9.10;7.05;;;;;;;17.00;nan;100951.28;4968145;28;20095;-73
2023/07/10 04:26:24;;;;;;;12.50;8.07;;;;;;;16.94;nan;100944.31;4969708;28;20027;-73
2023/07/10 04:28:52;;;;;;;10.65;6.82;;;;;;;17.03;nan;100956.09;4972467;28;20559;-73
2023/07/10 04:31:18;;;;;;;15.63;8.07;;;;;;;17.11;nan;100968.94;4971936;28;20035;-72
2023/07/10 04:33:45;;;;;;;20.30;9.60;;;;;;;17.06;nan;100968.88;4967895;28;20075;-73
2023/07/10 04:36:10;;;;;;;12.02;8.18;;;;;;;17.04;nan;100959.56;4968703;28;20095;-75
2023/07/10 04:38:36;;;;;;;11.10;7.35;;;;;;;17.12;nan;100969.72;4968428;28;20039;-70
2023/07/10 04:41:04;;;;;;;9.90;7.25;;;;;;;17.17;nan;100965.25;4971058;28;20031;-71
2023/07/10 04:43:31;;;;;;;18.27;7.55;;;;;;;17.26;nan;100978.09;4966424;28;20080;-70
2023/07/10 04:46:01;;;;;;;12.52;8.10;;;;;;;17.22;nan;100973.28;4970478;28;20039;-73
2023/07/10 04:48:26;;;;;;;16.27;8.07;;;;;;;17.26;nan;100960.25;4970054;28;20046;-73
2023/07/10 04:50:54;;;;;;;8.68;7.28;;;;;;;17.36;nan;100970.19;4983411;28;20527;-70
2023/07/10 04:53:20;;;;;;;12.75;7.15;;;;;;;17.36;nan;100964.88;4969741;28;20034;-70
2023/07/10 04:55:47;;;;;;;11.95;7.60;;;;;;;17.42;nan;100974.47;4969571;28;20058;-71
2023/07/10 04:58:13;;;;;;;22.35;8.15;;;;;;;17.37;nan;100955.81;4956473;28;20480;-70
2023/07/10 05:00:38;;;;;;;13.15;7.80;;;;;;;17.46;nan;100972.13;4966449;28;20037;-70
2023/07/10 05:03:05;;;;;;;10.52;7.15;;;;;;;17.48;nan;100954.81;4969897;28;20031;-70
2023/07/10 05:05:31;;;;;;;12.27;7.05;;;;;;;17.47;nan;100953.19;4972490;28;20035;-70
2023/07/10 05:07:56;;;;;;;11.70;7.88;;;;;;;17.59;nan;100977.78;4970173;28;20027;-70
2023/07/10 05:10:22;;;;;;;15.07;7.85;;;;;;;17.69;nan;100978.91;4968793;28;20738;-71
2023/07/10 05:12:47;;;;;;;17.40;8.20;;;;;;;17.71;nan;100966.13;4969865;28;20089;-70
2023/07/10 05:15:13;;;;;;;16.35;7.90;;;;;;;17.77;nan;100975.75;4969017;28;20066;-70
2023/07/10 05:17:40;;;;;;;16.30;7.65;;;;;;;17.83;nan;100977.41;4967580;28;20503;-71
2023/07/10 05:20:06;;;;;;;11.88;7.95;;;;;;;17.92;nan;100970.53;4970308;28;20751;-71
2023/07/10 05:22:32;;;;;;;13.15;7.28;;;;;;;17.99;nan;100972.97;4968623;28;20039;-70
2023/07/10 05:24:57;;;;;;;13.07;7.90;;;;;;;18.06;nan;100970.84;4967452;28;20033;-70
2023/07/10 05:27:23;;;;;;;11.52;7.45;;;;;;;18.17;nan;100969.84;4956663;28;20104;-72
2023/07/10 05:29:48;;;;;;;18.10;7.78;;;;;;;18.28;nan;100973.31;4968788;28;20154;-69
2023/07/10 05:32:13;;;;;;;13.02;7.35;;;;;;;18.34;nan;100968.78;4980857;28;20116;-72
2023/07/10 05:34:39;;;;;;;14.80;7.60;;;;;;;18.44;nan;100968.84;4967179;28;20060;-73
2023/07/10 05:37:04;;;;;;;12.88;7.45;;;;;;;18.58;nan;100975.28;4951863;28;20031;-69
2023/07/10 05:39:30;;;;;;;11.98;7.95;;;;;;;18.67;nan;100962.19;4967973;28;20073;-71
2023/07/10 05:41:56;;;;;;;16.33;7.38;;;;;;;18.75;nan;100967.03;4967925;28;20082;-71
2023/07/10 05:44:21;;;;;;;15.82;7.95;;;;;;;18.88;nan;100974.53;4966453;28;20037;-72
2023/07/10 05:46:47;;;;;;;12.48;8.00;;;;;;;18.98;nan;100984.41;4975479;28;20038;-73
2023/07/10 05:49:13;;;;;;;18.27;7.35;;;;;;;19.09;nan;100986.00;4969573;28;20448;-72
2023/07/10 05:51:38;;;;;;;21.40;7.93;;;;;;;19.22;nan;100975.84;4965714;28;20432;-71
2023/07/10 05:54:04;;;;;;;14.02;7.68;;;;;;;19.31;nan;100977.72;4966961;28;20503;-72
2023/07/10 05:56:29;;;;;;;13.93;7.53;;;;;;;19.39;nan;100967.56;4968422;28;20072;-71
2023/07/10 05:58:55;;;;;;;12.13;7.28;;;;;;;19.53;nan;100965.91;4968749;28;20033;-71
2023/07/10 06:01:20;;;;;;;20.33;7.47;;;;;;;19.62;nan;100964.31;4969832;28;20026;-71
2023/07/10 06:03:46;;;;;;;14.10;7.40;;;;;;;19.76;nan;100970.69;4966867;28;20484;-72
2023/07/10 06:06:11;;;;;;;13.00;7.47;;;;;;;19.84;nan;100974.69;4969769;28;20030;-71
2023/07/10 06:08:37;;;;;;;12.40;7.68;;;;;;;19.93;nan;100975.72;4950443;28;20035;-72
2023/07/10 06:11:05;;;;;;;10.45;7.60;;;;;;;20.02;nan;100975.16;4968203;28;20041;-71
2023/07/10 06:13:31;;;;;;;12.52;7.43;;;;;;;20.14;nan;100970.31;4965668;28;20457;-70
2023/07/10 06:15:58;;;;;;;14.57;7.18;;;;;;;20.17;nan;100967.88;4955003;28;20088;-71
2023/07/10 06:18:24;;;;;;;9.77;7.80;;;;;;;20.21;nan;100953.94;4954578;28;20515;-72
2023/07/10 06:20:52;;;;;;;15.45;8.05;;;;;;;20.37;nan;100969.63;4969866;28;20076;-71
2023/07/10 06:23:17;;;;;;;12.63;7.60;;;;;;;20.42;nan;100958.09;4966641;28;20031;-71
2023/07/10 06:25:45;;;;;;;15.48;8.52;;;;;;;20.59;nan;100952.41;4952861;28;20033;-71
2023/07/10 06:28:12;;;;;;;13.35;7.60;;;;;;;20.72;nan;100959.00;4969736;28;20038;-71
2023/07/10 06:30:39;;;;;;;11.05;7.15;;;;;;;20.82;nan;100956.25;4970568;28;20480;-72
2023/07/10 06:33:04;;;;;;;19.13;8.00;;;;;;;20.91;nan;100953.78;4967400;28;20542;-71
2023/07/10 06:35:30;;;;;;;11.90;7.22;;;;;;;20.97;nan;100952.66;4968788;28;20030;-71
2023/07/10 06:37:55;;;;;;;13.75;7.35;;;;;;;21.08;nan;100956.84;4969310;28;20697;-71
2023/07/10 06:40:20;;;;;;;10.85;6.72;;;;;;;21.21;nan;100945.47;4955019;28;20054;-71
2023/07/10 06:42:46;;;;;;;12.35;6.72;;;;;;;21.33;nan;100957.66;4970376;28;20397;-70
2023/07/10 06:45:12;;;;;;;14.05;7.07;;;;;;;21.36;nan;100959.81;4970777;28;20062;-72
2023/07/10 06:47:43;;;;;;;16.30;6.88;;;;;;;21.49;nan;100953.78;4946085;28;20037;-71
2023/07/10 06:50:11;;;;;;;9.02;6.57;;;;;;;21.55;nan;100957.19;4966528;28;20065;-70
2023/07/10 06:52:41;;;;;;;13.05;6.50;;;;;;;21.61;nan;100956.06;4969506;28;20026;-70
2023/07/10 06:55:08;;;;;;;12.93;6.20;;;;;;;21.69;nan;100958.13;4967521;28;20428;-71
2023/07/10 06:57:34;;;;;;;13.65;6.10;;;;;;;21.80;nan;100954.22;4969686;28;20023;-71
2023/07/10 07:00:00;;;;;;;14.35;6.07;;;;;;;21.89;nan;100949.03;4972340;28;20026;-71
2023/07/10 07:02:26;;;;;;;16.67;6.30;;;;;;;21.99;nan;100950.81;4952574;28;20026;-71
2023/07/10 07:04:52;;;;;;;12.82;6.25;;;;;;;22.14;nan;100960.53;4972912;28;20023;-71
2023/07/10 07:07:17;;;;;;;9.95;5.90;;;;;;;22.17;nan;100958.06;4961519;28;20089;-71
2023/07/10 07:09:43;;;;;;;10.73;5.60;;;;;;;22.30;nan;100952.00;4956122;28;20057;-71
2023/07/10 07:12:10;;;;;;;8.35;5.57;;;;;;;22.40;nan;100955.63;4969288;28;20031;-73
2023/07/10 07:14:35;;;;;;;11.60;6.25;;;;;;;22.55;nan;100960.75;4941861;28;20082;-71
2023/07/10 07:17:01;;;;;;;16.60;6.22;;;;;;;22.63;nan;100954.75;4968513;28;20022;-71
2023/07/10 07:19:26;;;;;;;11.07;5.10;;;;;;;22.72;nan;100953.00;4955870;28;20033;-71
2023/07/10 07:21:52;;;;;;;8.77;5.45;;;;;;;22.86;nan;100944.19;4968952;28;20111;-71
2023/07/10 07:24:17;;;;;;;7.88;5.75;;;;;;;23.09;nan;100951.34;4968125;28;20069;-71
2023/07/10 07:26:43;;;;;;;14.23;6.00;;;;;;;23.14;nan;100951.25;4966605;28;20109;-72
2023/07/10 07:29:08;;;;;;;9.63;6.00;;;;;;;23.27;nan;100956.94;4954757;28;20501;-71
2023/07/10 07:31:34;;;;;;;9.18;5.53;;;;;;;23.39;nan;100959.94;4972093;28;20031;-71
2023/07/10 07:33:59;;;;;;;8.38;5.30;;;;;;;23.49;nan;100949.00;4956230;28;20726;-71
2023/07/10 07:36:25;;;;;;;8.57;5.28;;;;;;;23.53;nan;100941.91;4957712;28;20389;-71
2023/07/10 07:38:50;;;;;;;8.65;5.07;;;;;;;23.64;nan;100939.06;4968523;28;20030;-72
2023/07/10 07:41:16;;;;;;;7.32;5.15;;;;;;;23.81;nan;100939.25;4971620;28;20101;-71
2023/07/10 07:43:41;;;;;;;10.07;5.25;;;;;;;23.86;nan;100936.47;4985740;28;20058;-71
2023/07/10 07:46:06;;;;;;;9.30;4.60;;;;;;;24.02;nan;100942.31;4975795;28;20395;-71
2023/07/10 07:48:32;;;;;;;6.22;4.68;;;;;;;23.99;nan;100930.28;4975160;28;20081;-71
2023/07/10 07:51:07;;;;;;;7.95;4.60;;;;;;;24.14;nan;100934.53;4958387;28;20037;-71
2023/07/10 07:53:38;;;;;;;10.68;5.03;;;;;;;24.26;nan;100939.38;4973634;28;20033;-70
2023/07/10 07:56:04;;;;;;;7.90;5.43;;;;;;;24.30;nan;100929.59;4973702;28;20034;-70
2023/07/10 07:58:29;;;;;;;6.97;4.95;;;;;;;24.44;nan;100932.22;4976973;28;20033;-72
2023/07/10 08:00:55;;;;;;;9.65;4.75;;;;;;;24.50;nan;100917.56;4971129;28;20429;-71
2023/07/10 08:03:20;;;;;;;9.93;4.70;;;;;;;24.63;nan;100932.06;4969145;28;20025;-70
2023/07/10 08:05:46;;;;;;;9.88;5.43;;;;;;;24.69;nan;100925.47;4970489;28;20530;-72
2023/07/10 08:08:11;;;;;;;11.07;5.22;;;;;;;24.74;nan;100919.94;4970246;28;20030;-71
2023/07/10 08:10:41;;;;;;;8.48;4.85;;;;;;;24.90;nan;100933.84;4986187;28;20034;-71
2023/07/10 08:13:08;;;;;;;13.52;4.90;;;;;;;24.99;nan;100920.41;4961504;28;20030;-72
2023/07/10 08:15:33;;;;;;;12.65;5.30;;;;;;;25.06;nan;100923.44;4986628;28;20047;-71
2023/07/10 08:17:59;;;;;;;12.15;5.18;;;;;;;25.17;nan;100926.69;4972047;28;20037;-72
2023/07/10 08:20:26;;;;;;;12.57;4.95;;;;;;;25.35;nan;100927.56;4971001;28;20057;-72
2023/07/10 08:22:51;;;;;;;12.38;6.53;;;;;;;25.40;nan;100920.13;4974796;28;20026;-72
2023/07/10 08:25:17;;;;;;;11.30;5.28;;;;;;;25.55;nan;100927.00;4975547;28;20037;-71
2023/07/10 08:27:44;;;;;;;11.75;5.30;;;;;;;25.56;nan;100915.09;4977187;28;20035;-71
2023/07/10 08:30:10;;;;;;;11.35;5.68;;;;;;;25.64;nan;100922.44;4978322;28;20666;-71
2023/07/10 08:32:35;;;;;;;8.38;5.50;;;;;;;25.81;nan;100918.97;4976521;28;20098;-70
2023/07/10 08:35:02;;;;;;;13.20;5.30;;;;;;;25.85;nan;100914.53;4975016;28;20046;-71
2023/07/10 08:37:28;;;;;;;11.93;6.15;;;;;;;25.93;nan;100912.19;4974765;28;20030;-72
2023/07/10 08:39:55;;;;;;;12.95;5.43;;;;;;;26.03;nan;100911.91;4961954;28;20046;-72
2023/07/10 08:42:24;;;;;;;9.85;5.55;;;;;;;26.07;nan;100908.25;4973608;28;20019;-71
2023/07/10 08:44:53;;;;;;;12.05;5.90;;;;;;;26.24;nan;100923.66;4975417;28;20039;-72
2023/07/10 08:47:23;;;;;;;11.00;5.43;;;;;;;26.28;nan;100924.59;4966465;28;20026;-71
2023/07/10 08:49:58;;;;;;;14.68;5.65;;;;;;;26.31;nan;100913.16;4975452;28;20458;-71
2023/07/10 08:52:34;;;;;;;14.48;6.22;;;;;;;26.50;nan;100920.91;4978011;28;20022;-71
2023/07/10 08:55:00;;;;;;;8.68;4.95;;;;;;;26.57;nan;100922.38;4981715;28;20608;-71
2023/07/10 08:57:35;;;;;;;11.05;5.00;;;;;;;26.62;nan;100914.88;4980613;28;20061;-72
2023/07/10 09:00:13;;;;;;;13.68;5.85;;;;;;;26.82;nan;100918.03;4974413;28;20041;-71
2023/07/10 09:02:50;;;;;;;7.78;4.88;;;;;;;26.94;nan;100913.53;4977882;28;20548;-71
2023/07/10 09:05:23;;;;;;;8.73;4.53;;;;;;;27.10;nan;100911.09;4982799;28;20030;-72
2023/07/10 09:07:49;;;;;;;11.52;4.85;;;;;;;27.22;nan;100905.03;4975767;28;20064;-71
2023/07/10 09:10:31;;;;;;;8.40;5.13;;;;;;;27.28;nan;100898.34;4973578;28;20031;-71
2023/07/10 09:13:01;;;;;;;8.65;4.93;;;;;;;27.39;nan;100906.84;4976869;28;20185;-71
2023/07/10 09:15:38;;;;;;;7.10;4.53;;;;;;;27.53;nan;100907.41;4952871;28;20590;-71
2023/07/10 09:18:13;;;;;;;6.18;4.85;;;;;;;27.66;nan;100902.91;4952009;28;20046;-71
2023/07/10 09:20:40;;;;;;;10.77;5.18;;;;;;;27.85;nan;100896.28;4967213;28;20031;-72
2023/07/10 09:23:28;;;;;;;6.43;4.40;;;;;;;27.99;nan;100902.19;4948649;28;20122;-71
2023/07/10 09:26:05;;;;;;;10.43;4.35;;;;;;;28.07;nan;100893.22;4953234;28;20029;-70
2023/07/10 09:28:31;;;;;;;5.97;4.28;;;;;;;28.15;nan;100888.84;4951469;28;20071;-72
2023/07/10 09:31:20;;;;;;;13.13;4.45;;;;;;;28.32;nan;100901.44;4969116;28;20055;-70
2023/07/10 09:33:58;;;;;;;7.65;4.80;;;;;;;28.50;nan;100886.66;4947665;28;20822;-73
2023/07/10 09:36:23;;;;;;;6.75;4.13;;;;;;;28.70;nan;100889.63;4959124;28;20047;-73
2023/07/10 09:38:51;;;;;;;6.72;3.83;;;;;;;28.93;nan;100890.81;4970904;28;20430;-74
2023/07/10 09:41:23;;;;;;;10.13;4.00;;;;;;;29.24;nan;100895.69;4952610;28;20497;-74
2023/07/10 09:44:04;;;;;;;5.93;3.47;;;;;;;29.23;nan;100885.97;4951068;28;20046;-71
2023/07/10 09:46:36;;;;;;;8.45;4.03;;;;;;;29.38;nan;100892.66;4967972;28;20022;-71
2023/07/10 09:49:09;;;;;;;7.93;4.22;;;;;;;29.50;nan;100883.72;4946984;28;20031;-71
2023/07/10 09:51:36;;;;;;;6.25;3.80;;;;;;;29.57;nan;100881.22;4947918;28;20031;-71
2023/07/10 09:54:07;;;;;;;18.23;4.60;;;;;;;29.67;nan;100879.97;4947614;28;20774;-71
2023/07/10 09:56:38;;;;;;;7.47;3.70;;;;;;;29.87;nan;100886.38;4948937;28;20494;-70
2023/07/10 09:59:26;;;;;;;5.25;3.63;;;;;;;29.96;nan;100888.94;4952059;28;20030;-70
2023/07/10 10:01:53;;;;;;;9.52;3.63;;;;;;;30.03;nan;100886.44;4946812;28;20038;-71
2023/07/10 10:04:27;;;;;;;4.43;3.47;;;;;;;30.11;nan;100877.34;4951243;28;20035;-71
2023/07/10 10:07:14;;;;;;;8.07;4.03;;;;;;;30.25;nan;100875.03;4952056;28;20030;-70
2023/07/10 10:09:40;;;;;;;5.00;3.70;;;;;;;30.35;nan;100881.13;4966074;28;20038;-71
2023/07/10 10:12:18;;;;;;;9.32;3.80;;;;;;;30.42;nan;100882.09;4948269;28;20038;-71
2023/07/10 10:14:49;;;;;;;6.65;3.90;;;;;;;30.46;nan;100860.44;4947755;28;20055;-69
2023/07/10 10:17:18;;;;;;;5.18;3.72;;;;;;;30.51;nan;100866.41;4946360;28;20067;-71
2023/07/10 10:19:50;;;;;;;5.32;3.60;;;;;;;30.61;nan;100858.88;4965012;28;20039;-71
2023/07/10 10:22:16;;;;;;;7.32;4.03;;;;;;;30.70;nan;100851.34;4949818;28;20098;-72
2023/07/10 10:24:42;;;;;;;10.38;3.58;;;;;;;30.76;nan;100858.09;4965074;28;20027;-71
2023/07/10 10:27:25;;;;;;;6.20;4.00;;;;;;;30.84;nan;100861.78;4948308;28;20035;-71
2023/07/10 10:30:32;;;;;;;9.13;3.80;;;;;;;30.92;nan;100858.13;4946853;28;20118;-71
2023/07/10 10:33:18;;;;;;;13.90;4.15;;;;;;;31.03;nan;100852.91;4938077;28;20523;-70
2023/07/10 10:35:50;;;;;;;4.78;3.90;;;;;;;31.05;nan;100837.03;4963451;28;20430;-70
2023/07/10 10:38:21;;;;;;;5.18;3.78;;;;;;;31.12;nan;100842.66;4950472;28;20035;-68
2023/07/10 10:40:46;;;;;;;9.43;4.30;;;;;;;31.28;nan;100843.41;4947721;28;20090;-71
2023/07/10 10:43:36;;;;;;;6.77;4.17;;;;;;;31.34;nan;100836.56;4943732;28;20039;-70
2023/07/10 10:46:37;;;;;;;6.13;3.65;;;;;;;31.22;nan;100812.16;4960397;28;20881;-73
2023/07/10 10:49:23;;;;;;;7.38;3.35;;;;;;;31.40;nan;100831.63;4945485;28;20030;-72
2023/07/10 10:51:59;;;;;;;9.45;3.67;;;;;;;31.38;nan;100833.91;4948166;28;20035;-73
2023/07/10 10:54:34;;;;;;;5.28;3.70;;;;;;;31.46;nan;100827.50;4949096;28;20097;-76
2023/07/10 10:57:06;;;;;;;10.10;3.28;;;;;;;31.55;nan;100828.06;4939908;28;20609;-73
2023/07/10 10:59:55;;;;;;;6.55;3.45;;;;;;;31.65;nan;100821.25;4962477;28;20437;-72
2023/07/10 11:02:54;;;;;;;8.07;3.50;;;;;;;31.73;nan;100825.72;4951524;28;20702;-73
2023/07/10 11:05:23;;;;;;;4.93;3.60;;;;;;;31.75;nan;100817.16;4947890;28;20046;-71
2023/07/10 11:07:54;;;;;;;5.35;3.47;;;;;;;31.69;nan;100821.34;4948789;28;20033;-72
2023/07/10 11:10:31;;;;;;;7.32;4.07;;;;;;;31.71;nan;100816.34;4947172;28;21081;-71
2023/07/10 11:12:57;;;;;;;5.53;3.40;;;;;;;31.56;nan;100816.03;4947463;28;20038;-72
2023/07/10 11:15:24;;;;;;;4.47;3.72;;;;;;;31.45;nan;100811.53;4973769;28;20042;-72
2023/07/10 11:17:52;;;;;;;4.80;3.53;;;;;;;31.46;nan;100799.47;4961852;28;20117;-70
2023/07/10 11:20:18;;;;;;;5.65;3.53;;;;;;;31.49;nan;100815.13;4962201;28;20061;-71
2023/07/10 11:22:52;;;;;;;6.20;3.45;;;;;;;31.55;nan;100808.22;4977717;28;20026;-72
2023/07/10 11:25:43;;;;;;;6.88;3.50;;;;;;;31.64;nan;100811.53;4972284;28;20031;-72
2023/07/10 11:28:27;;;;;;;5.28;3.22;;;;;;;31.73;nan;100795.75;4972293;28;20026;-72
2023/07/10 11:31:35;;;;;;;4.57;3.50;;;;;;;31.83;nan;100802.56;4984701;28;20050;-70
2023/07/10 11:34:07;;;;;;;7.07;4.00;;;;;;;31.85;nan;100791.31;4943603;28;20054;-73
2023/07/10 11:36:37;;;;;;;7.85;3.50;;;;;;;31.88;nan;100794.09;4970367;28;20138;-72
2023/07/10 11:39:05;;;;;;;6.45;3.53;;;;;;;31.95;nan;100786.09;4970554;28;20492;-70
2023/07/10 11:41:36;;;;;;;5.45;3.35;;;;;;;32.05;nan;100792.88;4970724;28;20563;-72
2023/07/10 11:44:22;;;;;;;7.47;4.00;;;;;;;32.14;nan;100787.22;4972659;28;20081;-72